createdAt,value
2023-04-16T00:02:52.069Z,6.95
2023-04-16T00:07:51.627Z,6.57
2023-04-16T00:12:49.770Z,7.40
2023-04-16T00:17:48.001Z,8.85
2023-04-16T00:22:47.568Z,6.18
2023-04-16T00:27:45.804Z,13.50
2023-04-16T00:32:44.172Z,8.07
2023-04-16T00:37:42.321Z,8.52
2023-04-16T00:42:41.868Z,7.35
2023-04-16T00:47:40.293Z,7.78
2023-04-16T00:52:38.635Z,4.57
2023-04-16T00:57:36.770Z,6.60
2023-04-16T01:02:36.901Z,6.47
2023-04-16T01:07:35.110Z,10.32
2023-04-16T01:12:33.439Z,4.63
2023-04-16T01:17:31.622Z,6.25
2023-04-16T01:22:31.155Z,7.90
2023-04-16T01:27:29.341Z,9.60
2023-04-16T01:32:27.560Z,8.93
2023-04-16T01:37:25.902Z,7.40
2023-04-16T01:42:25.466Z,9.00
2023-04-16T01:47:23.702Z,7.30
2023-04-16T01:52:21.873Z,4.97
2023-04-16T01:57:19.993Z,10.25
2023-04-16T02:02:19.794Z,7.50
2023-04-16T02:07:18.200Z,7.68
2023-04-16T02:12:16.340Z,9.60
2023-04-16T02:17:15.592Z,8.27
2023-04-16T02:22:16.172Z,8.23
2023-04-16T02:27:14.313Z,9.15
2023-04-16T02:32:13.330Z,9.27
2023-04-16T02:37:16.430Z,8.40
2023-04-16T02:42:15.762Z,8.65
2023-04-16T02:47:13.959Z,15.07
2023-04-16T02:52:13.749Z,7.68
2023-04-16T02:57:14.577Z,5.93
2023-04-16T03:02:13.943Z,8.07
2023-04-16T03:07:13.026Z,9.10
2023-04-16T03:12:11.508Z,9.85
2023-04-16T03:17:11.631Z,10.38
2023-04-16T03:22:09.767Z,10.63
2023-04-16T03:27:07.964Z,8.50
2023-04-16T03:32:06.386Z,11.55
2023-04-16T03:37:06.298Z,17.25
2023-04-16T03:42:04.923Z,13.45
2023-04-16T03:47:04.457Z,9.93
2023-04-16T03:52:02.881Z,7.78
2023-04-16T03:57:02.611Z,7.93
2023-04-16T04:02:00.904Z,11.27
2023-04-16T04:06:59.268Z,10.80
2023-04-16T04:11:58.924Z,14.98
2023-04-16T04:16:58.651Z,8.55
2023-04-16T04:21:56.912Z,8.07
2023-04-16T04:26:55.229Z,8.25
2023-04-16T04:31:55.263Z,8.55
2023-04-16T04:36:56.263Z,8.45
2023-04-16T04:41:55.194Z,7.82
2023-04-16T04:46:53.483Z,11.20
2023-04-16T04:51:51.824Z,10.27
2023-04-16T04:56:53.533Z,13.18
2023-04-16T05:01:52.508Z,12.60
2023-04-16T05:06:50.717Z,12.02
2023-04-16T05:11:48.856Z,10.13
2023-04-16T05:16:48.440Z,8.90
2023-04-16T05:21:46.604Z,11.15
2023-04-16T05:26:44.776Z,8.85
2023-04-16T05:31:42.951Z,12.80
2023-04-16T05:36:42.461Z,14.00
2023-04-16T05:41:40.611Z,8.93
2023-04-16T05:46:38.761Z,14.95
2023-04-16T05:51:36.983Z,23.85
2023-04-16T05:56:36.480Z,9.85
2023-04-16T06:01:34.810Z,14.43
2023-04-16T06:06:33.103Z,19.50
2023-04-16T06:11:31.618Z,20.75
2023-04-16T06:16:31.240Z,15.43
2023-04-16T06:21:29.786Z,13.70
2023-04-16T06:26:28.121Z,15.88
2023-04-16T06:31:26.451Z,13.20
2023-04-16T06:36:27.606Z,18.85
2023-04-16T06:41:26.797Z,13.75
2023-04-16T06:46:25.329Z,10.77
2023-04-16T06:51:23.526Z,13.13
2023-04-16T06:56:23.012Z,17.33
2023-04-16T07:01:21.191Z,15.30
2023-04-16T07:06:19.398Z,22.13
2023-04-16T07:11:17.890Z,20.00
2023-04-16T07:16:17.521Z,14.77
2023-04-16T07:21:16.051Z,10.65
2023-04-16T07:26:14.213Z,13.55
2023-04-16T07:31:12.379Z,17.23
2023-04-16T07:36:14.105Z,12.88
2023-04-16T07:41:12.246Z,11.38
2023-04-16T07:46:10.466Z,10.85
2023-04-16T07:51:08.694Z,14.65
2023-04-16T07:56:08.933Z,9.55
2023-04-16T08:01:07.082Z,19.95
2023-04-16T08:06:05.190Z,19.70
2023-04-16T08:11:03.333Z,14.38
2023-04-16T08:16:03.037Z,8.23
2023-04-16T08:21:01.572Z,15.48
2023-04-16T08:25:59.726Z,11.52
2023-04-16T08:30:57.953Z,13.30
2023-04-16T08:35:57.524Z,12.45
2023-04-16T08:40:57.789Z,11.95
2023-04-16T08:45:57.441Z,12.45
2023-04-16T08:50:57.312Z,10.00
2023-04-16T08:55:58.956Z,11.88
2023-04-16T09:00:57.245Z,12.70
2023-04-16T09:05:57.402Z,8.65
2023-04-16T09:10:57.291Z,11.60
2023-04-16T09:15:57.271Z,14.15
2023-04-16T09:20:56.412Z,11.73
2023-04-16T09:25:55.532Z,11.07
2023-04-16T09:31:08.375Z,10.68
2023-04-16T09:36:07.118Z,11.23
2023-04-16T09:41:08.549Z,22.08
2023-04-16T09:46:08.734Z,12.65
2023-04-16T09:51:07.503Z,9.45
2023-04-16T09:56:12.337Z,11.85
2023-04-16T10:01:13.374Z,10.45
2023-04-16T10:06:15.879Z,14.25
2023-04-16T10:11:14.162Z,10.52
2023-04-16T10:16:13.844Z,13.43
2023-04-16T10:21:13.010Z,8.60
2023-04-16T10:26:11.397Z,9.75
2023-04-16T10:31:10.542Z,11.80
2023-04-16T10:36:10.875Z,11.77
2023-04-16T10:41:09.763Z,9.02
2023-04-16T10:46:22.836Z,10.23
2023-04-16T10:51:29.486Z,12.02
2023-04-16T10:56:28.136Z,10.88
2023-04-16T11:01:33.289Z,13.73
2023-04-16T11:06:33.028Z,12.55
2023-04-16T11:11:38.636Z,19.05
2023-04-16T11:16:36.776Z,9.95
2023-04-16T11:21:37.166Z,9.77
2023-04-16T11:26:35.432Z,11.57
2023-04-16T11:31:33.698Z,10.98
2023-04-16T11:36:45.040Z,8.38
2023-04-16T11:41:46.647Z,9.50
2023-04-16T11:46:44.949Z,5.85
2023-04-16T11:51:43.797Z,9.68
2023-04-16T11:56:46.876Z,7.75
2023-04-16T12:01:47.732Z,5.85
2023-04-16T12:07:04.562Z,10.50
2023-04-16T12:12:04.166Z,8.73
2023-04-16T12:17:17.117Z,4.93
2023-04-16T12:22:16.100Z,5.97
2023-04-16T12:27:16.788Z,3.92
2023-04-16T12:32:22.423Z,4.22
2023-04-16T12:37:20.777Z,7.70
2023-04-16T12:42:27.978Z,6.05
2023-04-16T12:47:26.707Z,6.03
2023-04-16T12:52:25.003Z,7.95
2023-04-16T12:57:30.798Z,5.25
2023-04-16T13:02:30.689Z,4.78
2023-04-16T13:07:31.807Z,3.42
2023-04-16T13:12:34.190Z,4.45
2023-04-16T13:17:32.523Z,4.80
2023-04-16T13:22:30.844Z,5.55
2023-04-16T13:27:28.964Z,5.05
2023-04-16T13:32:28.922Z,2.97
2023-04-16T13:37:27.073Z,5.45
2023-04-16T13:42:25.252Z,6.05
2023-04-16T13:47:23.626Z,14.45
2023-04-16T13:52:23.464Z,5.88
2023-04-16T13:57:23.895Z,7.28
2023-04-16T14:02:22.205Z,8.25
2023-04-16T14:07:22.636Z,4.50
2023-04-16T14:12:22.603Z,6.25
2023-04-16T14:17:20.904Z,9.18
2023-04-16T14:22:19.111Z,7.10
2023-04-16T14:27:18.049Z,6.70
2023-04-16T14:32:17.599Z,6.15
2023-04-16T14:37:16.750Z,7.70
2023-04-16T14:42:14.882Z,5.40
2023-04-16T14:47:13.015Z,11.27
2023-04-16T14:52:12.589Z,7.65
2023-04-16T14:57:10.745Z,5.95
2023-04-16T15:02:10.468Z,5.68
2023-04-16T15:07:08.680Z,10.60
2023-04-16T15:12:09.466Z,10.60
2023-04-16T15:17:07.883Z,6.82
2023-04-16T15:22:07.088Z,6.28
2023-04-16T15:27:07.688Z,7.20
2023-04-16T15:32:08.482Z,6.53
2023-04-16T15:37:06.637Z,6.18
2023-04-16T15:42:07.402Z,6.55
2023-04-16T15:47:06.490Z,4.70
2023-04-16T15:52:06.384Z,29.17
2023-04-16T15:57:04.738Z,10.50
2023-04-16T16:02:03.082Z,6.88
2023-04-16T16:07:02.563Z,8.50
2023-04-16T16:12:02.099Z,6.75
2023-04-16T16:17:00.223Z,7.55
2023-04-16T16:21:58.352Z,7.10
2023-04-16T16:26:56.877Z,5.47
2023-04-16T16:31:56.446Z,10.43
2023-04-16T16:36:54.616Z,7.40
2023-04-16T16:41:53.420Z,9.32
2023-04-16T16:46:51.846Z,7.60
2023-04-16T16:51:51.503Z,7.38
2023-04-16T16:56:49.680Z,5.28
2023-04-16T17:01:47.878Z,6.78
2023-04-16T17:06:46.142Z,7.57
2023-04-16T17:11:45.785Z,9.85
2023-04-16T17:16:46.456Z,10.73
2023-04-16T17:21:44.716Z,10.88
2023-04-16T17:26:42.898Z,11.63
2023-04-16T17:31:42.448Z,16.50
2023-04-16T17:36:40.961Z,10.85
2023-04-16T17:41:39.210Z,10.13
2023-04-16T17:46:37.694Z,17.60
2023-04-16T17:51:37.284Z,10.65
2023-04-16T17:56:35.492Z,12.45
2023-04-16T18:01:33.786Z,8.45
2023-04-16T18:06:32.070Z,10.70
2023-04-16T18:11:31.735Z,15.45
2023-04-16T18:16:29.873Z,10.60
2023-04-16T18:21:29.874Z,13.35
2023-04-16T18:26:29.983Z,11.73
2023-04-16T18:31:29.614Z,11.05
2023-04-16T18:36:27.904Z,16.10
2023-04-16T18:41:26.169Z,15.52
2023-04-16T18:46:25.314Z,19.60
2023-04-16T18:51:25.011Z,14.50
2023-04-16T18:56:23.182Z,14.68
2023-04-16T19:01:21.438Z,17.40
2023-04-16T19:06:19.712Z,11.82
2023-04-16T19:11:19.249Z,17.05
2023-04-16T19:16:17.477Z,16.65
2023-04-16T19:21:15.664Z,13.70
2023-04-16T19:26:13.814Z,11.13
2023-04-16T19:31:13.372Z,18.40
2023-04-16T19:36:11.534Z,16.88
2023-04-16T19:41:09.768Z,13.48
2023-04-16T19:46:08.076Z,19.35
2023-04-16T19:51:07.658Z,14.98
2023-04-16T19:56:06.146Z,17.70
2023-04-16T20:01:09.214Z,17.67
2023-04-16T20:06:08.734Z,15.65
2023-04-16T20:11:08.641Z,18.38
2023-04-16T20:16:08.382Z,16.17
2023-04-16T20:21:07.913Z,17.70
2023-04-16T20:26:06.268Z,18.33
2023-04-16T20:31:04.502Z,20.67
2023-04-16T20:36:02.717Z,20.83
2023-04-16T20:41:10.089Z,22.17
2023-04-16T20:46:08.561Z,19.40
2023-04-16T20:51:07.744Z,21.38
2023-04-16T20:56:09.209Z,16.20
2023-04-16T21:01:07.525Z,15.85
2023-04-16T21:06:05.748Z,24.45
2023-04-16T21:11:03.980Z,19.52
2023-04-16T21:16:04.995Z,26.65
2023-04-16T21:21:03.202Z,20.95
2023-04-16T21:26:01.340Z,18.30
2023-04-16T21:30:59.765Z,17.38
2023-04-16T21:36:02.121Z,19.75
2023-04-16T21:41:00.255Z,22.40
2023-04-16T21:45:58.681Z,19.45
2023-04-16T21:50:58.051Z,29.58
2023-04-16T21:55:57.531Z,27.02
2023-04-16T22:00:55.940Z,23.85
2023-04-16T22:05:58.068Z,27.23
2023-04-16T22:11:01.414Z,27.52
2023-04-16T22:16:01.335Z,21.90
2023-04-16T22:20:59.877Z,29.02
2023-04-16T22:25:59.921Z,24.73
2023-04-16T22:30:59.497Z,28.15
2023-04-16T22:35:57.618Z,22.85
2023-04-16T22:40:55.757Z,21.13
2023-04-16T22:46:04.562Z,25.52
2023-04-16T22:51:03.008Z,22.25
2023-04-16T22:56:01.335Z,25.83
2023-04-16T23:01:01.615Z,26.08
2023-04-16T23:06:01.218Z,28.83
2023-04-16T23:10:59.349Z,26.55
2023-04-16T23:15:57.687Z,27.33
2023-04-16T23:20:55.952Z,23.70
2023-04-16T23:25:55.878Z,25.88
2023-04-16T23:30:54.021Z,24.80
2023-04-16T23:35:52.232Z,30.52
2023-04-16T23:40:50.596Z,26.15
2023-04-16T23:45:50.142Z,31.23
2023-04-16T23:50:48.322Z,23.63
2023-04-16T23:55:46.523Z,23.20
